sensor_id;sensor_type;location;lat;lon;timestamp;P1;durP1;ratioP1;P2;durP2;ratioP2
75050;SDS011;63628;47.656;11.310;2023-03-01T00:02:12;35.80;;;21.77;;
75050;SDS011;63628;47.656;11.310;2023-03-01T00:04:39;25.40;;;15.57;;
75050;SDS011;63628;47.656;11.310;2023-03-01T00:07:07;25.33;;;15.87;;
75050;SDS011;63628;47.656;11.310;2023-03-01T00:09:35;25.77;;;16.67;;
75050;SDS011;63628;47.656;11.310;2023-03-01T00:12:02;22.77;;;15.07;;
75050;SDS011;63628;47.656;11.310;2023-03-01T00:14:29;25.17;;;16.10;;
75050;SDS011;63628;47.656;11.310;2023-03-01T00:16:56;23.57;;;15.03;;
75050;SDS011;63628;47.656;11.310;2023-03-01T00:19:22;39.13;;;22.57;;
75050;SDS011;63628;47.656;11.310;2023-03-01T00:21:49;26.67;;;16.90;;
75050;SDS011;63628;47.656;11.310;2023-03-01T00:24:17;25.07;;;15.87;;
75050;SDS011;63628;47.656;11.310;2023-03-01T00:26:44;23.00;;;15.10;;
75050;SDS011;63628;47.656;11.310;2023-03-01T00:29:10;24.50;;;16.27;;
75050;SDS011;63628;47.656;11.310;2023-03-01T00:31:37;30.20;;;17.63;;
75050;SDS011;63628;47.656;11.310;2023-03-01T00:34:04;28.60;;;17.63;;
75050;SDS011;63628;47.656;11.310;2023-03-01T00:36:32;25.77;;;15.80;;
75050;SDS011;63628;47.656;11.310;2023-03-01T00:39:00;23.77;;;15.60;;
75050;SDS011;63628;47.656;11.310;2023-03-01T00:41:29;22.27;;;14.63;;
75050;SDS011;63628;47.656;11.310;2023-03-01T00:43:56;26.43;;;16.03;;
75050;SDS011;63628;47.656;11.310;2023-03-01T00:46:24;23.47;;;14.93;;
75050;SDS011;63628;47.656;11.310;2023-03-01T00:48:53;25.58;;;15.45;;
75050;SDS011;63628;47.656;11.310;2023-03-01T00:51:20;25.03;;;15.70;;
75050;SDS011;63628;47.656;11.310;2023-03-01T00:53:51;24.70;;;15.40;;
75050;SDS011;63628;47.656;11.310;2023-03-01T00:56:18;23.33;;;15.40;;
75050;SDS011;63628;47.656;11.310;2023-03-01T00:58:47;26.10;;;17.63;;
75050;SDS011;63628;47.656;11.310;2023-03-01T01:01:15;26.13;;;15.80;;
75050;SDS011;63628;47.656;11.310;2023-03-01T01:03:46;24.67;;;15.73;;
75050;SDS011;63628;47.656;11.310;2023-03-01T01:06:18;24.63;;;16.17;;
75050;SDS011;63628;47.656;11.310;2023-03-01T01:08:46;27.13;;;17.00;;
75050;SDS011;63628;47.656;11.310;2023-03-01T01:11:13;27.00;;;15.80;;
75050;SDS011;63628;47.656;11.310;2023-03-01T01:13:41;23.50;;;16.70;;
75050;SDS011;63628;47.656;11.310;2023-03-01T01:16:11;26.80;;;16.97;;
75050;SDS011;63628;47.656;11.310;2023-03-01T01:18:38;27.30;;;17.37;;
75050;SDS011;63628;47.656;11.310;2023-03-01T01:21:05;23.63;;;15.73;;
75050;SDS011;63628;47.656;11.310;2023-03-01T01:23:33;25.63;;;16.67;;
75050;SDS011;63628;47.656;11.310;2023-03-01T01:26:04;27.83;;;16.90;;
75050;SDS011;63628;47.656;11.310;2023-03-01T01:28:31;26.47;;;17.57;;
75050;SDS011;63628;47.656;11.310;2023-03-01T01:30:58;24.37;;;16.17;;
75050;SDS011;63628;47.656;11.310;2023-03-01T01:33:26;24.90;;;15.93;;
75050;SDS011;63628;47.656;11.310;2023-03-01T01:35:53;24.33;;;16.63;;
75050;SDS011;63628;47.656;11.310;2023-03-01T01:38:20;26.83;;;16.27;;
75050;SDS011;63628;47.656;11.310;2023-03-01T01:40:47;25.10;;;16.43;;
75050;SDS011;63628;47.656;11.310;2023-03-01T01:43:16;26.40;;;15.77;;
75050;SDS011;63628;47.656;11.310;2023-03-01T01:45:47;25.37;;;16.93;;
75050;SDS011;63628;47.656;11.310;2023-03-01T01:48:16;25.03;;;15.70;;
75050;SDS011;63628;47.656;11.310;2023-03-01T01:50:47;25.07;;;15.53;;
75050;SDS011;63628;47.656;11.310;2023-03-01T01:53:21;26.40;;;16.57;;
75050;SDS011;63628;47.656;11.310;2023-03-01T01:55:49;25.67;;;16.20;;
75050;SDS011;63628;47.656;11.310;2023-03-01T01:58:19;26.10;;;16.43;;
75050;SDS011;63628;47.656;11.310;2023-03-01T02:00:48;26.77;;;17.00;;
75050;SDS011;63628;47.656;11.310;2023-03-01T02:03:17;25.13;;;17.40;;
75050;SDS011;63628;47.656;11.310;2023-03-01T02:05:49;25.80;;;16.40;;
75050;SDS011;63628;47.656;11.310;2023-03-01T02:08:21;26.83;;;16.57;;
75050;SDS011;63628;47.656;11.310;2023-03-01T02:10:51;24.00;;;16.67;;
75050;SDS011;63628;47.656;11.310;2023-03-01T02:13:19;27.27;;;17.50;;
75050;SDS011;63628;47.656;11.310;2023-03-01T02:15:45;24.67;;;15.63;;
75050;SDS011;63628;47.656;11.310;2023-03-01T02:18:13;25.30;;;16.03;;
75050;SDS011;63628;47.656;11.310;2023-03-01T02:20:44;26.10;;;16.90;;
75050;SDS011;63628;47.656;11.310;2023-03-01T02:23:22;28.73;;;17.77;;
75050;SDS011;63628;47.656;11.310;2023-03-01T02:25:52;25.53;;;17.10;;
75050;SDS011;63628;47.656;11.310;2023-03-01T02:28:25;26.43;;;16.77;;
75050;SDS011;63628;47.656;11.310;2023-03-01T02:30:52;27.00;;;17.37;;
75050;SDS011;63628;47.656;11.310;2023-03-01T02:33:38;25.97;;;16.33;;
75050;SDS011;63628;47.656;11.310;2023-03-01T02:36:06;28.10;;;17.20;;
75050;SDS011;63628;47.656;11.310;2023-03-01T02:38:37;27.53;;;17.07;;
75050;SDS011;63628;47.656;11.310;2023-03-01T02:41:04;26.43;;;16.37;;
75050;SDS011;63628;47.656;11.310;2023-03-01T02:43:34;26.20;;;16.65;;
75050;SDS011;63628;47.656;11.310;2023-03-01T02:46:02;24.57;;;15.37;;
75050;SDS011;63628;47.656;11.310;2023-03-01T02:48:40;26.70;;;15.60;;
75050;SDS011;63628;47.656;11.310;2023-03-01T02:51:11;28.53;;;17.20;;
75050;SDS011;63628;47.656;11.310;2023-03-01T02:53:50;25.90;;;16.33;;
75050;SDS011;63628;47.656;11.310;2023-03-01T02:56:25;24.07;;;15.73;;
75050;SDS011;63628;47.656;11.310;2023-03-01T02:58:53;27.83;;;17.13;;
75050;SDS011;63628;47.656;11.310;2023-03-01T03:01:20;26.67;;;17.20;;
75050;SDS011;63628;47.656;11.310;2023-03-01T03:03:48;25.97;;;17.57;;
75050;SDS011;63628;47.656;11.310;2023-03-01T03:06:14;26.07;;;16.70;;
75050;SDS011;63628;47.656;11.310;2023-03-01T03:08:41;27.67;;;16.47;;
75050;SDS011;63628;47.656;11.310;2023-03-01T03:11:07;27.30;;;17.43;;
75050;SDS011;63628;47.656;11.310;2023-03-01T03:13:34;26.87;;;16.80;;
75050;SDS011;63628;47.656;11.310;2023-03-01T03:16:02;27.77;;;16.80;;
75050;SDS011;63628;47.656;11.310;2023-03-01T03:18:29;23.65;;;15.35;;
75050;SDS011;63628;47.656;11.310;2023-03-01T03:20:56;24.47;;;15.60;;
75050;SDS011;63628;47.656;11.310;2023-03-01T03:23:23;25.73;;;16.60;;
75050;SDS011;63628;47.656;11.310;2023-03-01T03:25:50;26.03;;;17.73;;
75050;SDS011;63628;47.656;11.310;2023-03-01T03:28:17;24.30;;;15.90;;
75050;SDS011;63628;47.656;11.310;2023-03-01T03:30:44;26.17;;;17.17;;
75050;SDS011;63628;47.656;11.310;2023-03-01T03:33:12;26.60;;;17.00;;
75050;SDS011;63628;47.656;11.310;2023-03-01T03:35:40;26.88;;;16.15;;
75050;SDS011;63628;47.656;11.310;2023-03-01T03:38:09;27.57;;;16.63;;
75050;SDS011;63628;47.656;11.310;2023-03-01T03:40:42;26.37;;;17.30;;
75050;SDS011;63628;47.656;11.310;2023-03-01T03:43:12;25.88;;;16.77;;
75050;SDS011;63628;47.656;11.310;2023-03-01T03:45:40;29.48;;;17.90;;
75050;SDS011;63628;47.656;11.310;2023-03-01T03:48:08;25.70;;;16.40;;
75050;SDS011;63628;47.656;11.310;2023-03-01T03:50:39;27.97;;;17.53;;
75050;SDS011;63628;47.656;11.310;2023-03-01T03:53:07;27.73;;;18.37;;
75050;SDS011;63628;47.656;11.310;2023-03-01T03:55:35;25.57;;;16.97;;
75050;SDS011;63628;47.656;11.310;2023-03-01T03:58:08;25.37;;;15.93;;
75050;SDS011;63628;47.656;11.310;2023-03-01T04:00:36;27.37;;;17.00;;
75050;SDS011;63628;47.656;11.310;2023-03-01T04:03:04;26.48;;;17.13;;
75050;SDS011;63628;47.656;11.310;2023-03-01T04:05:31;25.27;;;16.07;;
75050;SDS011;63628;47.656;11.310;2023-03-01T04:08:00;26.87;;;17.13;;
75050;SDS011;63628;47.656;11.310;2023-03-01T04:10:29;24.23;;;16.27;;
75050;SDS011;63628;47.656;11.310;2023-03-01T04:12:57;25.33;;;16.83;;
75050;SDS011;63628;47.656;11.310;2023-03-01T04:15:24;25.47;;;17.03;;
75050;SDS011;63628;47.656;11.310;2023-03-01T04:17:53;28.17;;;17.53;;
75050;SDS011;63628;47.656;11.310;2023-03-01T04:20:21;27.50;;;17.10;;
75050;SDS011;63628;47.656;11.310;2023-03-01T04:22:51;26.20;;;16.60;;
75050;SDS011;63628;47.656;11.310;2023-03-01T04:25:20;24.73;;;15.93;;
75050;SDS011;63628;47.656;11.310;2023-03-01T04:27:46;27.77;;;16.20;;
75050;SDS011;63628;47.656;11.310;2023-03-01T04:30:13;24.87;;;16.23;;
75050;SDS011;63628;47.656;11.310;2023-03-01T04:32:40;25.93;;;17.23;;
75050;SDS011;63628;47.656;11.310;2023-03-01T04:35:07;26.13;;;16.60;;
75050;SDS011;63628;47.656;11.310;2023-03-01T04:37:34;27.07;;;17.43;;
75050;SDS011;63628;47.656;11.310;2023-03-01T04:40:01;26.93;;;17.13;;
75050;SDS011;63628;47.656;11.310;2023-03-01T04:42:39;23.67;;;15.77;;
75050;SDS011;63628;47.656;11.310;2023-03-01T04:45:06;25.50;;;16.23;;
75050;SDS011;63628;47.656;11.310;2023-03-01T04:47:39;29.30;;;18.03;;
75050;SDS011;63628;47.656;11.310;2023-03-01T04:50:07;26.97;;;16.97;;
75050;SDS011;63628;47.656;11.310;2023-03-01T04:52:34;25.33;;;17.23;;
75050;SDS011;63628;47.656;11.310;2023-03-01T04:55:01;25.43;;;16.00;;
75050;SDS011;63628;47.656;11.310;2023-03-01T04:57:29;26.73;;;17.40;;
75050;SDS011;63628;47.656;11.310;2023-03-01T04:59:58;26.60;;;17.40;;
75050;SDS011;63628;47.656;11.310;2023-03-01T05:02:24;28.63;;;17.23;;
75050;SDS011;63628;47.656;11.310;2023-03-01T05:04:51;26.73;;;17.53;;
75050;SDS011;63628;47.656;11.310;2023-03-01T05:07:18;25.77;;;17.30;;
75050;SDS011;63628;47.656;11.310;2023-03-01T05:09:47;26.45;;;15.35;;
75050;SDS011;63628;47.656;11.310;2023-03-01T05:12:14;29.60;;;18.37;;
75050;SDS011;63628;47.656;11.310;2023-03-01T05:14:41;26.60;;;17.90;;
75050;SDS011;63628;47.656;11.310;2023-03-01T05:17:09;25.17;;;16.73;;
75050;SDS011;63628;47.656;11.310;2023-03-01T05:19:35;25.67;;;16.70;;
75050;SDS011;63628;47.656;11.310;2023-03-01T05:22:02;29.33;;;18.00;;
75050;SDS011;63628;47.656;11.310;2023-03-01T05:24:32;27.80;;;17.83;;
75050;SDS011;63628;47.656;11.310;2023-03-01T05:27:01;27.40;;;16.83;;
75050;SDS011;63628;47.656;11.310;2023-03-01T05:29:28;28.07;;;16.97;;
75050;SDS011;63628;47.656;11.310;2023-03-01T05:31:57;26.43;;;17.20;;
75050;SDS011;63628;47.656;11.310;2023-03-01T05:34:27;26.67;;;16.80;;
75050;SDS011;63628;47.656;11.310;2023-03-01T05:36:54;27.17;;;16.88;;
75050;SDS011;63628;47.656;11.310;2023-03-01T05:39:21;26.47;;;17.63;;
75050;SDS011;63628;47.656;11.310;2023-03-01T05:41:51;26.93;;;16.97;;
75050;SDS011;63628;47.656;11.310;2023-03-01T05:46:45;26.50;;;16.73;;
75050;SDS011;63628;47.656;11.310;2023-03-01T05:49:12;25.87;;;15.77;;
75050;SDS011;63628;47.656;11.310;2023-03-01T05:51:40;26.57;;;16.73;;
75050;SDS011;63628;47.656;11.310;2023-03-01T05:54:08;27.97;;;17.27;;
75050;SDS011;63628;47.656;11.310;2023-03-01T05:56:35;28.83;;;17.17;;
75050;SDS011;63628;47.656;11.310;2023-03-01T05:59:02;25.90;;;15.97;;
75050;SDS011;63628;47.656;11.310;2023-03-01T06:01:31;26.15;;;16.85;;
75050;SDS011;63628;47.656;11.310;2023-03-01T06:03:57;28.27;;;17.93;;
75050;SDS011;63628;47.656;11.310;2023-03-01T06:06:24;24.03;;;15.47;;
75050;SDS011;63628;47.656;11.310;2023-03-01T06:11:21;22.97;;;15.70;;
75050;SDS011;63628;47.656;11.310;2023-03-01T06:13:48;28.60;;;16.90;;
75050;SDS011;63628;47.656;11.310;2023-03-01T06:16:15;25.93;;;16.00;;
75050;SDS011;63628;47.656;11.310;2023-03-01T06:18:41;30.23;;;18.40;;
75050;SDS011;63628;47.656;11.310;2023-03-01T06:21:08;26.57;;;16.53;;
75050;SDS011;63628;47.656;11.310;2023-03-01T06:23:35;25.73;;;16.23;;
75050;SDS011;63628;47.656;11.310;2023-03-01T06:26:06;25.80;;;16.60;;
75050;SDS011;63628;47.656;11.310;2023-03-01T06:28:33;25.67;;;15.87;;
75050;SDS011;63628;47.656;11.310;2023-03-01T06:31:00;27.90;;;17.00;;
75050;SDS011;63628;47.656;11.310;2023-03-01T06:33:27;28.33;;;17.30;;
75050;SDS011;63628;47.656;11.310;2023-03-01T06:35:54;26.17;;;16.33;;
75050;SDS011;63628;47.656;11.310;2023-03-01T06:38:21;26.97;;;16.80;;
75050;SDS011;63628;47.656;11.310;2023-03-01T06:40:51;24.40;;;15.93;;
75050;SDS011;63628;47.656;11.310;2023-03-01T06:43:20;26.27;;;16.70;;
75050;SDS011;63628;47.656;11.310;2023-03-01T06:45:47;26.50;;;17.57;;
75050;SDS011;63628;47.656;11.310;2023-03-01T06:48:14;25.20;;;16.40;;
75050;SDS011;63628;47.656;11.310;2023-03-01T06:50:41;24.27;;;15.90;;
75050;SDS011;63628;47.656;11.310;2023-03-01T06:53:07;26.83;;;16.87;;
75050;SDS011;63628;47.656;11.310;2023-03-01T06:55:34;28.27;;;16.73;;
75050;SDS011;63628;47.656;11.310;2023-03-01T06:58:01;26.93;;;17.30;;
75050;SDS011;63628;47.656;11.310;2023-03-01T07:00:30;29.57;;;18.77;;
75050;SDS011;63628;47.656;11.310;2023-03-01T07:02:58;31.27;;;19.43;;
75050;SDS011;63628;47.656;11.310;2023-03-01T07:05:25;33.50;;;20.03;;
75050;SDS011;63628;47.656;11.310;2023-03-01T07:07:52;38.67;;;22.47;;
75050;SDS011;63628;47.656;11.310;2023-03-01T07:10:19;36.27;;;22.77;;
75050;SDS011;63628;47.656;11.310;2023-03-01T07:12:46;39.50;;;22.97;;
75050;SDS011;63628;47.656;11.310;2023-03-01T07:15:13;36.93;;;23.63;;
75050;SDS011;63628;47.656;11.310;2023-03-01T07:17:42;40.43;;;23.60;;
75050;SDS011;63628;47.656;11.310;2023-03-01T07:22:39;38.53;;;22.53;;
75050;SDS011;63628;47.656;11.310;2023-03-01T07:25:06;35.23;;;20.77;;
75050;SDS011;63628;47.656;11.310;2023-03-01T07:27:33;39.77;;;24.03;;
75050;SDS011;63628;47.656;11.310;2023-03-01T07:29:59;38.63;;;22.60;;
75050;SDS011;63628;47.656;11.310;2023-03-01T07:32:26;40.23;;;22.57;;
75050;SDS011;63628;47.656;11.310;2023-03-01T07:34:54;36.57;;;22.90;;
75050;SDS011;63628;47.656;11.310;2023-03-01T07:37:21;37.97;;;23.23;;
75050;SDS011;63628;47.656;11.310;2023-03-01T07:39:47;36.67;;;21.97;;
75050;SDS011;63628;47.656;11.310;2023-03-01T07:42:14;42.63;;;25.70;;
75050;SDS011;63628;47.656;11.310;2023-03-01T07:44:41;43.17;;;26.40;;
75050;SDS011;63628;47.656;11.310;2023-03-01T07:47:07;47.60;;;28.60;;
75050;SDS011;63628;47.656;11.310;2023-03-01T07:49:34;39.40;;;22.90;;
75050;SDS011;63628;47.656;11.310;2023-03-01T07:52:02;49.83;;;28.47;;
75050;SDS011;63628;47.656;11.310;2023-03-01T07:54:29;40.60;;;23.07;;
75050;SDS011;63628;47.656;11.310;2023-03-01T07:56:56;34.87;;;21.93;;
75050;SDS011;63628;47.656;11.310;2023-03-01T07:59:22;37.37;;;22.13;;
75050;SDS011;63628;47.656;11.310;2023-03-01T08:01:55;38.07;;;23.00;;
75050;SDS011;63628;47.656;11.310;2023-03-01T08:04:21;31.57;;;19.47;;
75050;SDS011;63628;47.656;11.310;2023-03-01T08:06:49;34.47;;;21.43;;
75050;SDS011;63628;47.656;11.310;2023-03-01T08:09:17;34.27;;;20.00;;
75050;SDS011;63628;47.656;11.310;2023-03-01T08:11:43;37.37;;;20.50;;
75050;SDS011;63628;47.656;11.310;2023-03-01T08:14:10;34.20;;;21.33;;
75050;SDS011;63628;47.656;11.310;2023-03-01T08:16:37;36.17;;;21.93;;
75050;SDS011;63628;47.656;11.310;2023-03-01T08:19:04;35.10;;;21.70;;
75050;SDS011;63628;47.656;11.310;2023-03-01T08:21:31;35.50;;;20.10;;
75050;SDS011;63628;47.656;11.310;2023-03-01T08:24:00;35.03;;;21.88;;
75050;SDS011;63628;47.656;11.310;2023-03-01T08:26:29;30.63;;;19.77;;
75050;SDS011;63628;47.656;11.310;2023-03-01T08:28:56;34.60;;;19.57;;
75050;SDS011;63628;47.656;11.310;2023-03-01T08:31:23;31.50;;;18.90;;
75050;SDS011;63628;47.656;11.310;2023-03-01T08:33:53;34.75;;;19.95;;
75050;SDS011;63628;47.656;11.310;2023-03-01T08:36:22;30.60;;;19.33;;
75050;SDS011;63628;47.656;11.310;2023-03-01T08:38:50;33.70;;;20.17;;
75050;SDS011;63628;47.656;11.310;2023-03-01T08:41:17;40.13;;;24.43;;
75050;SDS011;63628;47.656;11.310;2023-03-01T08:43:45;29.93;;;19.43;;
75050;SDS011;63628;47.656;11.310;2023-03-01T08:46:12;31.77;;;19.30;;
75050;SDS011;63628;47.656;11.310;2023-03-01T08:48:40;33.40;;;20.17;;
75050;SDS011;63628;47.656;11.310;2023-03-01T08:51:10;32.25;;;20.05;;
75050;SDS011;63628;47.656;11.310;2023-03-01T08:53:39;35.50;;;19.50;;
75050;SDS011;63628;47.656;11.310;2023-03-01T08:56:06;33.73;;;20.37;;
75050;SDS011;63628;47.656;11.310;2023-03-01T08:58:33;32.23;;;20.17;;
75050;SDS011;63628;47.656;11.310;2023-03-01T09:01:01;33.80;;;20.97;;
75050;SDS011;63628;47.656;11.310;2023-03-01T09:03:33;32.67;;;20.50;;
75050;SDS011;63628;47.656;11.310;2023-03-01T09:06:00;31.73;;;19.43;;
75050;SDS011;63628;47.656;11.310;2023-03-01T09:08:27;30.70;;;19.23;;
75050;SDS011;63628;47.656;11.310;2023-03-01T09:10:55;40.27;;;24.20;;
75050;SDS011;63628;47.656;11.310;2023-03-01T09:13:22;40.57;;;23.27;;
75050;SDS011;63628;47.656;11.310;2023-03-01T09:15:53;27.87;;;17.13;;
75050;SDS011;63628;47.656;11.310;2023-03-01T09:18:21;33.20;;;19.93;;
75050;SDS011;63628;47.656;11.310;2023-03-01T09:20:47;33.23;;;19.40;;
75050;SDS011;63628;47.656;11.310;2023-03-01T09:23:14;44.83;;;27.43;;
75050;SDS011;63628;47.656;11.310;2023-03-01T09:25:41;42.53;;;26.20;;
75050;SDS011;63628;47.656;11.310;2023-03-01T09:28:07;32.00;;;18.80;;
75050;SDS011;63628;47.656;11.310;2023-03-01T09:30:43;29.80;;;18.03;;
75050;SDS011;63628;47.656;11.310;2023-03-01T09:33:09;32.17;;;20.27;;
75050;SDS011;63628;47.656;11.310;2023-03-01T09:35:42;44.90;;;26.33;;
75050;SDS011;63628;47.656;11.310;2023-03-01T09:38:12;38.83;;;24.90;;
75050;SDS011;63628;47.656;11.310;2023-03-01T09:40:41;37.17;;;23.50;;
75050;SDS011;63628;47.656;11.310;2023-03-01T09:43:12;33.23;;;21.23;;
75050;SDS011;63628;47.656;11.310;2023-03-01T09:45:46;35.43;;;22.07;;
75050;SDS011;63628;47.656;11.310;2023-03-01T09:48:16;29.03;;;19.17;;
75050;SDS011;63628;47.656;11.310;2023-03-01T09:50:46;29.10;;;18.17;;
75050;SDS011;63628;47.656;11.310;2023-03-01T09:53:13;30.37;;;18.97;;
75050;SDS011;63628;47.656;11.310;2023-03-01T09:55:43;34.20;;;19.50;;
75050;SDS011;63628;47.656;11.310;2023-03-01T10:01:10;28.73;;;18.03;;
75050;SDS011;63628;47.656;11.310;2023-03-01T10:03:53;27.07;;;18.03;;
75050;SDS011;63628;47.656;11.310;2023-03-01T10:06:31;36.67;;;21.93;;
75050;SDS011;63628;47.656;11.310;2023-03-01T10:09:01;35.63;;;22.33;;
75050;SDS011;63628;47.656;11.310;2023-03-01T10:11:32;33.87;;;22.03;;
75050;SDS011;63628;47.656;11.310;2023-03-01T10:14:05;26.80;;;18.00;;
75050;SDS011;63628;47.656;11.310;2023-03-01T10:16:43;25.60;;;17.00;;
75050;SDS011;63628;47.656;11.310;2023-03-01T10:19:16;34.27;;;21.77;;
75050;SDS011;63628;47.656;11.310;2023-03-01T10:21:49;32.03;;;20.30;;
75050;SDS011;63628;47.656;11.310;2023-03-01T10:24:17;27.27;;;17.88;;
75050;SDS011;63628;47.656;11.310;2023-03-01T10:26:48;27.83;;;18.03;;
75050;SDS011;63628;47.656;11.310;2023-03-01T10:29:21;27.40;;;18.13;;
75050;SDS011;63628;47.656;11.310;2023-03-01T10:31:52;27.47;;;17.63;;
75050;SDS011;63628;47.656;11.310;2023-03-01T10:34:22;27.33;;;17.60;;
75050;SDS011;63628;47.656;11.310;2023-03-01T10:36:56;27.43;;;17.43;;
75050;SDS011;63628;47.656;11.310;2023-03-01T10:39:27;26.70;;;17.33;;
75050;SDS011;63628;47.656;11.310;2023-03-01T10:41:55;26.47;;;16.77;;
75050;SDS011;63628;47.656;11.310;2023-03-01T10:44:38;36.07;;;21.83;;
75050;SDS011;63628;47.656;11.310;2023-03-01T10:47:14;35.10;;;20.10;;
75050;SDS011;63628;47.656;11.310;2023-03-01T10:49:56;27.30;;;16.30;;
75050;SDS011;63628;47.656;11.310;2023-03-01T10:52:27;35.87;;;20.77;;
75050;SDS011;63628;47.656;11.310;2023-03-01T10:54:56;31.70;;;19.70;;
75050;SDS011;63628;47.656;11.310;2023-03-01T10:57:28;29.63;;;17.90;;
75050;SDS011;63628;47.656;11.310;2023-03-01T11:00:14;30.70;;;20.13;;
75050;SDS011;63628;47.656;11.310;2023-03-01T11:03:01;34.77;;;21.07;;
75050;SDS011;63628;47.656;11.310;2023-03-01T11:05:35;26.87;;;16.70;;
75050;SDS011;63628;47.656;11.310;2023-03-01T11:08:03;28.30;;;19.20;;
75050;SDS011;63628;47.656;11.310;2023-03-01T11:10:31;33.73;;;20.90;;
75050;SDS011;63628;47.656;11.310;2023-03-01T11:13:06;30.80;;;19.45;;
75050;SDS011;63628;47.656;11.310;2023-03-01T11:15:35;33.00;;;21.10;;
75050;SDS011;63628;47.656;11.310;2023-03-01T11:18:02;33.47;;;20.80;;
75050;SDS011;63628;47.656;11.310;2023-03-01T11:20:39;34.03;;;20.53;;
75050;SDS011;63628;47.656;11.310;2023-03-01T11:23:10;30.43;;;19.33;;
75050;SDS011;63628;47.656;11.310;2023-03-01T11:25:39;33.33;;;20.23;;
75050;SDS011;63628;47.656;11.310;2023-03-01T11:28:10;32.67;;;20.13;;
75050;SDS011;63628;47.656;11.310;2023-03-01T11:30:41;32.27;;;19.87;;
75050;SDS011;63628;47.656;11.310;2023-03-01T11:33:34;31.57;;;19.73;;
75050;SDS011;63628;47.656;11.310;2023-03-01T11:36:06;28.83;;;18.37;;
75050;SDS011;63628;47.656;11.310;2023-03-01T11:38:41;31.27;;;19.87;;
75050;SDS011;63628;47.656;11.310;2023-03-01T11:41:12;31.13;;;18.67;;
75050;SDS011;63628;47.656;11.310;2023-03-01T11:43:44;35.87;;;20.60;;
75050;SDS011;63628;47.656;11.310;2023-03-01T11:46:29;29.17;;;19.27;;
75050;SDS011;63628;47.656;11.310;2023-03-01T11:49:31;34.37;;;20.67;;
75050;SDS011;63628;47.656;11.310;2023-03-01T11:52:15;28.10;;;17.33;;
75050;SDS011;63628;47.656;11.310;2023-03-01T11:54:51;28.87;;;18.27;;
75050;SDS011;63628;47.656;11.310;2023-03-01T11:57:36;30.47;;;18.70;;
75050;SDS011;63628;47.656;11.310;2023-03-01T12:00:18;31.50;;;17.83;;
75050;SDS011;63628;47.656;11.310;2023-03-01T12:03:22;26.37;;;17.60;;
75050;SDS011;63628;47.656;11.310;2023-03-01T12:06:00;28.40;;;17.83;;
75050;SDS011;63628;47.656;11.310;2023-03-01T12:08:52;30.87;;;18.90;;
75050;SDS011;63628;47.656;11.310;2023-03-01T12:11:32;26.23;;;16.73;;
75050;SDS011;63628;47.656;11.310;2023-03-01T12:14:25;31.23;;;19.27;;
75050;SDS011;63628;47.656;11.310;2023-03-01T12:17:14;35.17;;;20.30;;
75050;SDS011;63628;47.656;11.310;2023-03-01T12:19:59;29.30;;;19.83;;
75050;SDS011;63628;47.656;11.310;2023-03-01T12:22:43;30.40;;;18.77;;
75050;SDS011;63628;47.656;11.310;2023-03-01T12:25:25;32.87;;;19.80;;
75050;SDS011;63628;47.656;11.310;2023-03-01T12:28:04;33.80;;;21.37;;
75050;SDS011;63628;47.656;11.310;2023-03-01T12:30:46;30.93;;;19.97;;
75050;SDS011;63628;47.656;11.310;2023-03-01T12:33:30;32.80;;;20.70;;
75050;SDS011;63628;47.656;11.310;2023-03-01T12:38:57;36.03;;;21.95;;
75050;SDS011;63628;47.656;11.310;2023-03-01T12:41:45;30.73;;;20.33;;
75050;SDS011;63628;47.656;11.310;2023-03-01T12:44:27;33.97;;;21.43;;
75050;SDS011;63628;47.656;11.310;2023-03-01T12:47:05;34.97;;;21.30;;
75050;SDS011;63628;47.656;11.310;2023-03-01T12:49:40;32.83;;;20.83;;
75050;SDS011;63628;47.656;11.310;2023-03-01T12:52:11;37.07;;;22.27;;
75050;SDS011;63628;47.656;11.310;2023-03-01T12:54:42;33.57;;;20.30;;
75050;SDS011;63628;47.656;11.310;2023-03-01T12:57:10;35.50;;;21.90;;
75050;SDS011;63628;47.656;11.310;2023-03-01T12:59:46;31.60;;;21.33;;
75050;SDS011;63628;47.656;11.310;2023-03-01T13:02:28;33.47;;;20.50;;
75050;SDS011;63628;47.656;11.310;2023-03-01T13:05:06;32.77;;;21.27;;
75050;SDS011;63628;47.656;11.310;2023-03-01T13:07:48;30.00;;;19.30;;
75050;SDS011;63628;47.656;11.310;2023-03-01T13:10:22;31.37;;;19.80;;
75050;SDS011;63628;47.656;11.310;2023-03-01T13:13:00;35.83;;;21.57;;
75050;SDS011;63628;47.656;11.310;2023-03-01T13:15:31;36.57;;;23.10;;
75050;SDS011;63628;47.656;11.310;2023-03-01T13:18:00;33.47;;;20.97;;
75050;SDS011;63628;47.656;11.310;2023-03-01T13:20:45;36.10;;;21.48;;
75050;SDS011;63628;47.656;11.310;2023-03-01T13:23:23;33.40;;;19.70;;
75050;SDS011;63628;47.656;11.310;2023-03-01T13:26:05;36.37;;;22.30;;
75050;SDS011;63628;47.656;11.310;2023-03-01T13:28:41;38.57;;;21.90;;
75050;SDS011;63628;47.656;11.310;2023-03-01T13:37:28;31.53;;;19.90;;
75050;SDS011;63628;47.656;11.310;2023-03-01T13:39:58;37.87;;;19.90;;
75050;SDS011;63628;47.656;11.310;2023-03-01T13:42:31;31.23;;;18.37;;
75050;SDS011;63628;47.656;11.310;2023-03-01T13:45:01;33.37;;;20.80;;
75050;SDS011;63628;47.656;11.310;2023-03-01T13:47:28;36.70;;;21.87;;
75050;SDS011;63628;47.656;11.310;2023-03-01T13:49:56;36.07;;;21.80;;
75050;SDS011;63628;47.656;11.310;2023-03-01T13:52:31;36.47;;;22.00;;
75050;SDS011;63628;47.656;11.310;2023-03-01T13:55:10;35.83;;;21.73;;
75050;SDS011;63628;47.656;11.310;2023-03-01T13:57:44;37.80;;;22.07;;
75050;SDS011;63628;47.656;11.310;2023-03-01T14:00:24;38.03;;;21.98;;
75050;SDS011;63628;47.656;11.310;2023-03-01T14:02:59;39.27;;;23.70;;
75050;SDS011;63628;47.656;11.310;2023-03-01T14:05:33;35.20;;;20.83;;
75050;SDS011;63628;47.656;11.310;2023-03-01T14:08:00;36.20;;;22.23;;
75050;SDS011;63628;47.656;11.310;2023-03-01T14:10:28;35.13;;;20.87;;
75050;SDS011;63628;47.656;11.310;2023-03-01T14:13:08;36.60;;;21.87;;
75050;SDS011;63628;47.656;11.310;2023-03-01T14:15:50;35.07;;;21.70;;
75050;SDS011;63628;47.656;11.310;2023-03-01T14:18:32;25.33;;;15.83;;
75050;SDS011;63628;47.656;11.310;2023-03-01T14:21:08;37.70;;;22.17;;
75050;SDS011;63628;47.656;11.310;2023-03-01T14:23:35;35.77;;;21.87;;
75050;SDS011;63628;47.656;11.310;2023-03-01T14:26:07;37.37;;;22.73;;
75050;SDS011;63628;47.656;11.310;2023-03-01T14:28:35;38.67;;;22.45;;
75050;SDS011;63628;47.656;11.310;2023-03-01T14:34:03;39.73;;;23.47;;
75050;SDS011;63628;47.656;11.310;2023-03-01T14:36:33;38.83;;;23.50;;
75050;SDS011;63628;47.656;11.310;2023-03-01T14:41:32;39.73;;;21.73;;
75050;SDS011;63628;47.656;11.310;2023-03-01T14:44:02;36.57;;;22.43;;
75050;SDS011;63628;47.656;11.310;2023-03-01T14:46:31;34.63;;;20.60;;
75050;SDS011;63628;47.656;11.310;2023-03-01T14:49:03;31.77;;;18.43;;
75050;SDS011;63628;47.656;11.310;2023-03-01T14:51:36;34.83;;;21.45;;
75050;SDS011;63628;47.656;11.310;2023-03-01T14:54:04;37.00;;;21.90;;